createdAt,value
2022-08-22T00:01:40.054Z,97.30
2022-08-22T00:02:44.177Z,96.80
2022-08-22T00:02:45.810Z,95.30
2022-08-22T00:04:40.313Z,97.30
2022-08-22T00:07:46.504Z,97.50
2022-08-22T00:10:53.682Z,97.50
2022-08-22T00:14:01.311Z,97.50
2022-08-22T00:16:51.692Z,97.50
2022-08-22T00:19:56.946Z,97.60
2022-08-22T00:22:38.562Z,97.50
2022-08-22T00:25:36.215Z,97.60
2022-08-22T00:28:18.048Z,97.60
2022-08-22T00:31:00.352Z,97.70
2022-08-22T00:33:43.777Z,97.70
2022-08-22T00:36:40.158Z,97.60
2022-08-22T00:39:19.708Z,97.90
2022-08-22T00:42:30.307Z,97.70
2022-08-22T00:45:35.475Z,97.80
2022-08-22T00:48:24.234Z,97.60
2022-08-22T00:51:25.536Z,97.70
2022-08-22T00:54:26.016Z,97.60
2022-08-22T00:57:18.457Z,97.50
2022-08-22T01:03:36.835Z,97.20
2022-08-22T01:13:18.084Z,97.60
2022-08-22T01:15:50.540Z,97.30
2022-08-22T01:18:58.738Z,97.10
2022-08-22T01:21:59.117Z,97.30
2022-08-22T01:25:21.478Z,97.00
2022-08-22T01:28:29.651Z,96.80
2022-08-22T01:31:35.572Z,96.40
2022-08-22T01:34:40.367Z,96.40
2022-08-22T01:44:15.600Z,96.10
2022-08-22T01:47:11.298Z,95.50
2022-08-22T01:52:55.076Z,94.90
2022-08-22T01:56:02.743Z,94.70
2022-08-22T01:58:38.198Z,94.40
2022-08-22T02:01:43.529Z,94.40
2022-08-22T02:04:39.115Z,93.70
2022-08-22T02:07:24.124Z,93.70
2022-08-22T02:10:25.663Z,93.50
2022-08-22T02:13:10.572Z,93.40
2022-08-22T02:15:53.067Z,93.00
2022-08-22T02:18:48.903Z,93.10
2022-08-22T02:21:29.750Z,92.20
2022-08-22T02:27:31.580Z,93.10
2022-08-22T02:30:18.576Z,92.70
2022-08-22T02:36:07.548Z,91.80
2022-08-22T02:39:01.666Z,91.80
2022-08-22T02:42:13.118Z,91.40
2022-08-22T02:44:59.213Z,92.00
2022-08-22T02:47:51.356Z,91.70
2022-08-22T02:50:51.751Z,91.80
2022-08-22T02:53:39.635Z,91.90
2022-08-22T02:56:19.074Z,91.40
2022-08-22T02:59:01.497Z,91.80
2022-08-22T03:01:44.069Z,92.10
2022-08-22T03:04:48.789Z,91.80
2022-08-22T03:07:32.442Z,91.70
2022-08-22T03:19:52.336Z,91.00
2022-08-22T03:22:54.112Z,90.90
2022-08-22T03:26:07.636Z,90.80
2022-08-22T03:28:52.637Z,90.90
2022-08-22T03:31:32.084Z,90.30
2022-08-22T03:34:29.528Z,90.00
2022-08-22T03:37:24.203Z,87.30
2022-08-22T03:40:02.925Z,88.30
2022-08-22T03:43:04.067Z,88.20
2022-08-22T03:49:19.750Z,90.20
2022-08-22T03:52:15.256Z,89.90
2022-08-22T03:55:16.250Z,90.20
2022-08-22T04:04:46.455Z,88.10
2022-08-22T04:07:46.908Z,88.80
2022-08-22T04:10:57.153Z,88.10
2022-08-22T04:13:53.029Z,88.80
2022-08-22T04:16:57.674Z,88.60
2022-08-22T04:19:53.674Z,88.60
2022-08-22T04:22:58.615Z,87.70
2022-08-22T04:25:40.830Z,87.00
2022-08-22T04:28:30.482Z,86.60
2022-08-22T04:31:19.949Z,87.50
2022-08-22T04:33:56.049Z,84.90
2022-08-22T04:39:50.909Z,85.60
2022-08-22T04:45:32.493Z,84.60
2022-08-22T04:48:16.904Z,81.50
2022-08-22T04:50:57.228Z,83.10
2022-08-22T04:54:01.812Z,84.90
2022-08-22T04:56:49.147Z,84.90
2022-08-22T04:59:21.163Z,83.70
2022-08-22T05:02:01.348Z,83.20
2022-08-22T05:04:42.570Z,83.00
2022-08-22T05:07:23.066Z,82.70
2022-08-22T05:12:58.177Z,80.50
2022-08-22T05:15:41.015Z,81.70
2022-08-22T05:18:34.497Z,81.40
2022-08-22T05:21:09.284Z,82.30
2022-08-22T05:23:57.857Z,80.80
2022-08-22T05:26:30.754Z,81.50
2022-08-22T05:29:06.158Z,80.80
2022-08-22T05:31:47.341Z,80.60
2022-08-22T05:34:27.980Z,81.40
2022-08-22T05:37:18.119Z,81.50
2022-08-22T05:40:00.292Z,83.20
2022-08-22T05:42:43.005Z,81.60
2022-08-22T05:45:20.029Z,81.20
2022-08-22T05:48:16.977Z,82.10
2022-08-22T05:51:13.827Z,80.90
2022-08-22T05:54:06.078Z,81.20
2022-08-22T05:56:50.475Z,83.40
2022-08-22T05:59:47.913Z,83.70
2022-08-22T06:02:37.827Z,79.00
2022-08-22T06:05:12.126Z,81.10
2022-08-22T06:07:56.657Z,81.20
2022-08-22T06:10:49.783Z,82.80
2022-08-22T06:13:44.190Z,82.80
2022-08-22T06:16:39.999Z,82.50
2022-08-22T06:19:22.163Z,84.40
2022-08-22T06:21:57.383Z,82.90
2022-08-22T06:24:31.057Z,82.70
2022-08-22T06:27:08.318Z,83.70
2022-08-22T06:29:44.727Z,83.80
2022-08-22T06:32:44.391Z,82.30
2022-08-22T06:35:21.253Z,83.60
2022-08-22T06:37:53.452Z,83.80
2022-08-22T06:40:24.664Z,83.00
2022-08-22T06:42:56.481Z,83.30
2022-08-22T06:48:22.197Z,84.40
2022-08-22T06:50:59.112Z,83.90
2022-08-22T06:53:49.835Z,84.90
2022-08-22T06:56:28.033Z,84.20
2022-08-22T06:59:03.508Z,84.30
2022-08-22T07:01:38.643Z,83.00
2022-08-22T07:04:11.976Z,83.50
2022-08-22T07:06:52.295Z,83.30
2022-08-22T07:09:31.198Z,82.20
2022-08-22T07:12:07.509Z,82.20
2022-08-22T07:14:52.645Z,82.80
2022-08-22T07:17:29.858Z,82.70
2022-08-22T07:20:13.613Z,82.70
2022-08-22T07:22:54.330Z,83.80
2022-08-22T07:25:26.829Z,82.70
2022-08-22T07:28:15.863Z,83.30
2022-08-22T07:30:57.118Z,85.10
2022-08-22T07:33:46.279Z,84.00
2022-08-22T07:36:35.594Z,83.30
2022-08-22T07:39:32.599Z,84.40
2022-08-22T07:42:28.563Z,82.60
2022-08-22T07:45:30.372Z,82.40
2022-08-22T07:48:25.556Z,82.40
2022-08-22T07:51:17.130Z,83.90
2022-08-22T07:53:52.181Z,83.70
2022-08-22T07:56:27.413Z,84.30
2022-08-22T07:59:07.978Z,84.50
2022-08-22T08:01:43.378Z,83.60
2022-08-22T08:04:20.506Z,82.40
2022-08-22T08:06:55.047Z,82.40
2022-08-22T08:09:27.121Z,82.90
2022-08-22T08:11:57.992Z,82.70
2022-08-22T08:14:29.352Z,83.00
2022-08-22T08:17:34.204Z,83.10
2022-08-22T08:20:13.141Z,83.10
2022-08-22T08:22:48.267Z,82.40
2022-08-22T08:25:23.962Z,82.70
2022-08-22T08:28:14.397Z,82.70
2022-08-22T08:30:50.290Z,81.70
2022-08-22T08:33:26.689Z,81.40
2022-08-22T08:36:35.683Z,80.10
2022-08-22T08:39:35.438Z,80.50
2022-08-22T08:45:59.434Z,79.70
2022-08-22T08:48:59.992Z,78.10
2022-08-22T08:52:07.488Z,78.40
2022-08-22T08:55:16.020Z,80.20
2022-08-22T08:58:25.210Z,80.00
2022-08-22T09:01:28.690Z,79.80
2022-08-22T09:04:28.775Z,80.20
2022-08-22T09:14:10.604Z,81.00
2022-08-22T09:17:04.135Z,80.50
2022-08-22T09:20:18.008Z,81.50
2022-08-22T09:23:20.710Z,81.50
2022-08-22T09:26:07.963Z,80.70
2022-08-22T09:28:56.978Z,81.40
2022-08-22T09:31:52.099Z,80.90
2022-08-22T09:34:51.951Z,80.70
2022-08-22T09:37:52.419Z,81.30
2022-08-22T09:40:16.254Z,80.20
2022-08-22T09:40:42.226Z,81.00
2022-08-22T09:46:34.724Z,82.40
2022-08-22T09:49:21.921Z,81.20
2022-08-22T09:52:33.770Z,82.50
2022-08-22T09:55:35.442Z,82.40
2022-08-22T09:58:19.645Z,82.30
2022-08-22T10:01:27.687Z,83.10
2022-08-22T10:04:35.663Z,83.10
2022-08-22T10:07:35.987Z,82.90
2022-08-22T10:10:35.855Z,82.90
2022-08-22T10:13:45.697Z,82.50
2022-08-22T10:16:46.650Z,82.10
2022-08-22T10:19:40.623Z,83.40
2022-08-22T10:22:44.532Z,83.30
2022-08-22T10:25:41.858Z,82.80
2022-08-22T10:28:39.971Z,83.20
2022-08-22T10:34:25.021Z,84.00
2022-08-22T10:37:17.649Z,83.70
2022-08-22T10:40:28.047Z,83.90
2022-08-22T10:43:08.498Z,83.60
2022-08-22T10:45:44.989Z,83.20
2022-08-22T10:51:37.808Z,82.10
2022-08-22T10:58:01.112Z,83.10
2022-08-22T11:00:52.671Z,82.70
2022-08-22T11:03:51.900Z,83.00
2022-08-22T11:06:55.191Z,82.50
2022-08-22T11:09:43.529Z,82.80
2022-08-22T11:12:36.193Z,83.20
2022-08-22T11:15:43.324Z,82.50
2022-08-22T11:19:01.859Z,82.90
2022-08-22T11:22:03.891Z,81.40
2022-08-22T11:25:04.838Z,82.50
2022-08-22T11:28:04.594Z,83.50
2022-08-22T11:31:07.187Z,82.50
2022-08-22T11:34:03.234Z,82.40
2022-08-22T11:36:55.390Z,82.00
2022-08-22T11:39:41.092Z,82.50
2022-08-22T11:42:23.388Z,83.10
2022-08-22T11:45:01.361Z,82.90
2022-08-22T11:47:46.557Z,83.80
2022-08-22T11:50:47.255Z,83.60
2022-08-22T11:56:40.111Z,83.20
2022-08-22T12:03:01.422Z,84.00
2022-08-22T12:06:08.814Z,84.70
2022-08-22T12:09:18.571Z,85.10
2022-08-22T12:15:24.413Z,84.80
2022-08-22T12:18:29.682Z,87.10
2022-08-22T12:21:18.119Z,88.60
2022-08-22T12:24:30.639Z,88.90
2022-08-22T12:27:28.692Z,89.90
2022-08-22T12:30:18.705Z,90.60
2022-08-22T12:36:31.775Z,90.30
2022-08-22T12:39:32.165Z,90.10
2022-08-22T12:42:32.595Z,90.30
2022-08-22T12:45:34.546Z,90.60
2022-08-22T12:48:33.673Z,90.60
2022-08-22T12:54:32.255Z,91.40
2022-08-22T13:00:42.421Z,92.50
2022-08-22T13:03:30.979Z,92.70
2022-08-22T13:06:27.818Z,93.00
2022-08-22T13:09:00.452Z,93.20
2022-08-22T13:11:39.442Z,93.40
2022-08-22T13:14:18.539Z,93.50
2022-08-22T13:16:55.906Z,93.50
2022-08-22T13:22:29.004Z,93.40
2022-08-22T13:25:25.489Z,93.30
2022-08-22T13:28:04.029Z,93.70
2022-08-22T13:30:41.316Z,94.10
2022-08-22T13:33:24.200Z,94.70
2022-08-22T13:36:00.478Z,94.90
2022-08-22T13:38:46.392Z,95.00
2022-08-22T13:41:28.996Z,95.20
2022-08-22T13:44:15.990Z,95.30
2022-08-22T13:47:13.099Z,95.00
2022-08-22T13:49:45.167Z,95.10
2022-08-22T13:52:52.283Z,95.00
2022-08-22T13:55:42.967Z,95.10
2022-08-22T13:58:27.150Z,94.90
2022-08-22T14:01:21.569Z,94.90
2022-08-22T14:04:26.661Z,94.70
2022-08-22T14:07:41.790Z,94.80
2022-08-22T14:10:23.059Z,94.60
2022-08-22T14:13:30.113Z,94.50
2022-08-22T14:16:05.442Z,94.80
2022-08-22T14:18:49.500Z,94.60
2022-08-22T14:21:59.558Z,94.50
2022-08-22T14:24:48.873Z,94.40
2022-08-22T14:28:00.980Z,94.40
2022-08-22T14:30:40.508Z,94.70
2022-08-22T14:33:28.319Z,94.80
2022-08-22T14:36:05.921Z,94.70
2022-08-22T14:38:46.102Z,95.20
2022-08-22T14:41:56.078Z,94.70
2022-08-22T14:44:33.892Z,94.40
2022-08-22T14:47:54.208Z,94.40
2022-08-22T14:50:11.539Z,94.30
2022-08-22T14:52:48.028Z,94.40
2022-08-22T14:55:27.815Z,94.70
2022-08-22T14:58:07.344Z,94.70
2022-08-22T15:00:43.274Z,94.70
2022-08-22T15:04:01.143Z,94.80
2022-08-22T15:06:58.886Z,94.60
2022-08-22T15:09:53.276Z,94.80
2022-08-22T15:12:52.037Z,94.80
2022-08-22T15:16:05.720Z,95.00
2022-08-22T15:18:40.209Z,94.80
2022-08-22T15:21:36.900Z,94.90
2022-08-22T15:24:17.277Z,94.90
2022-08-22T15:26:57.412Z,94.90
2022-08-22T15:29:33.955Z,95.20
2022-08-22T15:32:06.314Z,95.50
2022-08-22T15:35:04.802Z,95.40
2022-08-22T15:37:55.494Z,95.50
2022-08-22T15:40:47.696Z,95.80
2022-08-22T15:43:38.648Z,95.60
2022-08-22T15:46:31.966Z,95.60
2022-08-22T15:49:13.489Z,95.70
2022-08-22T15:52:14.232Z,95.60
2022-08-22T15:55:17.274Z,95.80
2022-08-22T15:58:14.729Z,95.70
2022-08-22T16:01:05.562Z,95.70
2022-08-22T16:04:08.151Z,95.80
2022-08-22T16:06:48.134Z,95.90
2022-08-22T16:09:43.594Z,95.90
2022-08-22T16:12:31.700Z,96.00
2022-08-22T16:15:04.911Z,96.10
2022-08-22T16:17:45.880Z,96.00
2022-08-22T16:20:48.733Z,96.10
2022-08-22T16:23:19.834Z,96.20
2022-08-22T16:26:11.052Z,96.30
2022-08-22T16:28:58.790Z,96.30
2022-08-22T16:31:59.890Z,96.40
2022-08-22T16:34:47.865Z,96.50
2022-08-22T16:40:28.239Z,96.20
2022-08-22T16:46:02.055Z,96.50
2022-08-22T16:51:27.539Z,96.60
2022-08-22T16:54:10.861Z,96.70
2022-08-22T16:56:56.129Z,96.70
2022-08-22T16:59:45.984Z,96.60
2022-08-22T17:02:30.095Z,96.50
2022-08-22T17:08:42.326Z,96.80
2022-08-22T17:11:29.128Z,96.90
2022-08-22T17:14:32.400Z,97.10
2022-08-22T17:20:52.916Z,97.00
2022-08-22T17:27:03.745Z,96.40
2022-08-22T17:33:04.693Z,96.00
2022-08-22T17:36:03.609Z,96.10
2022-08-22T17:39:11.068Z,95.90
2022-08-22T17:42:01.442Z,96.00
2022-08-22T17:45:00.853Z,96.00
2022-08-22T17:47:40.645Z,96.20
2022-08-22T17:50:21.102Z,96.10
2022-08-22T17:53:06.336Z,96.40
2022-08-22T17:55:56.867Z,96.10
2022-08-22T17:58:43.505Z,96.00
2022-08-22T18:01:37.992Z,96.10
2022-08-22T18:04:14.367Z,96.30
2022-08-22T18:06:56.274Z,96.30
2022-08-22T18:12:51.741Z,96.70
2022-08-22T18:15:47.012Z,96.90
2022-08-22T18:18:33.340Z,96.80
2022-08-22T18:21:22.520Z,96.80
2022-08-22T18:24:22.039Z,96.50
2022-08-22T18:30:22.299Z,96.50
2022-08-22T18:33:08.811Z,96.30
2022-08-22T18:35:53.764Z,96.50
2022-08-22T18:38:34.671Z,96.50
2022-08-22T18:41:34.545Z,96.50
2022-08-22T18:53:42.870Z,96.70
2022-08-22T18:56:44.029Z,96.70
2022-08-22T18:59:43.538Z,96.40
2022-08-22T19:02:46.135Z,96.70
2022-08-22T19:05:54.887Z,96.70
2022-08-22T19:08:44.585Z,96.60
2022-08-22T19:11:45.088Z,96.50
2022-08-22T19:14:50.517Z,96.60
2022-08-22T19:17:59.542Z,96.60
2022-08-22T19:20:55.361Z,96.60
2022-08-22T19:23:45.499Z,96.70
2022-08-22T19:26:35.558Z,96.80
2022-08-22T19:29:44.750Z,96.80
2022-08-22T19:32:47.297Z,96.80
2022-08-22T19:35:27.996Z,96.90
2022-08-22T19:38:03.412Z,96.80
2022-08-22T19:40:53.353Z,96.80
2022-08-22T19:43:44.316Z,96.60
2022-08-22T19:46:16.904Z,96.90
2022-08-22T19:48:54.436Z,96.60
2022-08-22T19:51:30.539Z,96.60
2022-08-22T19:57:15.707Z,96.00
2022-08-22T20:03:33.113Z,96.30
2022-08-22T20:06:45.295Z,96.40
2022-08-22T20:09:47.176Z,96.30
2022-08-22T20:12:42.310Z,96.10
2022-08-22T20:21:03.742Z,96.30
2022-08-22T20:23:34.255Z,96.20
2022-08-22T20:26:05.503Z,96.30
2022-08-22T20:28:54.384Z,96.50
2022-08-22T20:31:30.063Z,96.60
2022-08-22T20:34:05.818Z,96.50
2022-08-22T20:36:36.220Z,96.60
2022-08-22T20:39:13.407Z,96.50
2022-08-22T20:47:34.103Z,96.80
2022-08-22T20:50:14.282Z,96.90
2022-08-22T20:52:54.371Z,96.80
2022-08-22T21:01:16.249Z,96.90
2022-08-22T21:03:50.498Z,96.80
2022-08-22T21:09:37.281Z,96.80
2022-08-22T21:12:11.422Z,96.90
2022-08-22T21:14:48.076Z,96.90
2022-08-22T21:17:24.998Z,97.00
2022-08-22T21:19:57.765Z,97.00
2022-08-22T21:22:32.429Z,97.30
2022-08-22T21:25:03.663Z,97.30
2022-08-22T21:27:36.777Z,97.40
2022-08-22T21:30:10.847Z,97.40
2022-08-22T21:32:53.745Z,97.30
2022-08-22T21:35:32.298Z,97.30
2022-08-22T21:38:03.705Z,97.30
2022-08-22T21:40:39.742Z,97.40
2022-08-22T21:43:17.263Z,97.30
2022-08-22T21:45:47.996Z,97.40
2022-08-22T21:48:52.527Z,97.40
2022-08-22T21:51:42.653Z,97.50
2022-08-22T21:54:41.726Z,97.20
2022-08-22T21:57:22.912Z,97.30
2022-08-22T21:59:58.844Z,97.60
2022-08-22T22:02:40.880Z,97.50
2022-08-22T22:05:18.061Z,97.60
2022-08-22T22:07:50.375Z,97.80
2022-08-22T22:10:24.719Z,97.60
2022-08-22T22:12:58.623Z,97.60
2022-08-22T22:15:33.963Z,97.50
2022-08-22T22:18:04.310Z,97.30
2022-08-22T22:20:34.794Z,97.40
2022-08-22T22:23:05.614Z,97.50
2022-08-22T22:25:40.734Z,97.50
2022-08-22T22:28:18.782Z,97.50
2022-08-22T22:30:52.664Z,97.40
2022-08-22T22:33:27.383Z,97.40
2022-08-22T22:36:00.935Z,97.70
2022-08-22T22:38:31.356Z,97.80
2022-08-22T22:41:01.862Z,97.80
2022-08-22T22:43:32.243Z,97.60
2022-08-22T22:46:03.099Z,97.70
2022-08-22T22:48:33.892Z,97.50
2022-08-22T22:51:11.152Z,97.70
2022-08-22T22:53:43.727Z,97.90
2022-08-22T22:56:21.311Z,98.20
2022-08-22T22:59:00.767Z,98.30
2022-08-22T23:01:34.110Z,98.30
2022-08-22T23:04:05.815Z,98.10
2022-08-22T23:06:37.037Z,98.10
2022-08-22T23:09:07.417Z,98.00
2022-08-22T23:11:37.925Z,98.10
2022-08-22T23:14:08.367Z,98.00
2022-08-22T23:16:41.691Z,97.90
2022-08-22T23:19:13.804Z,98.00
2022-08-22T23:21:45.600Z,97.80
2022-08-22T23:24:16.868Z,97.90
2022-08-22T23:26:47.687Z,97.90
2022-08-22T23:29:18.522Z,97.90
2022-08-22T23:32:01.341Z,98.00
2022-08-22T23:34:35.267Z,98.00
2022-08-22T23:37:08.199Z,98.10
2022-08-22T23:39:40.541Z,98.00
2022-08-22T23:42:12.067Z,97.80
2022-08-22T23:44:44.539Z,97.60
2022-08-22T23:47:16.657Z,97.60
2022-08-22T23:49:47.140Z,97.50
2022-08-22T23:52:18.185Z,97.30
2022-08-22T23:54:48.512Z,97.30
2022-08-22T23:57:26.510Z,97.30
2022-08-22T23:59:59.863Z,97.40
